sensor_id;sensor_type;location;lat;lon;timestamp;temperature;humidity
56300;DHT22;42209;6.376;-10.782;2023-04-15T00:01:08;22.10;40.40
56300;DHT22;42209;6.376;-10.782;2023-04-15T00:03:36;22.10;40.40
56300;DHT22;42209;6.376;-10.782;2023-04-15T00:06:05;22.10;40.50
56300;DHT22;42209;6.376;-10.782;2023-04-15T00:08:33;22.10;40.30
56300;DHT22;42209;6.376;-10.782;2023-04-15T00:11:02;22.00;40.40
56300;DHT22;42209;6.376;-10.782;2023-04-15T00:13:30;22.00;40.40
56300;DHT22;42209;6.376;-10.782;2023-04-15T00:15:59;22.00;40.20
56300;DHT22;42209;6.376;-10.782;2023-04-15T00:18:27;22.00;40.40
56300;DHT22;42209;6.376;-10.782;2023-04-15T00:20:56;22.00;40.50
56300;DHT22;42209;6.376;-10.782;2023-04-15T00:23:25;22.00;40.40
56300;DHT22;42209;6.376;-10.782;2023-04-15T00:25:53;22.00;40.50
56300;DHT22;42209;6.376;-10.782;2023-04-15T00:28:21;22.00;40.40
56300;DHT22;42209;6.376;-10.782;2023-04-15T00:30:49;22.00;40.50
56300;DHT22;42209;6.376;-10.782;2023-04-15T00:33:18;21.90;40.50
56300;DHT22;42209;6.376;-10.782;2023-04-15T00:35:46;22.10;47.40
56300;DHT22;42209;6.376;-10.782;2023-04-15T00:38:14;22.40;50.80
56300;DHT22;42209;6.376;-10.782;2023-04-15T00:40:43;22.60;53.00
56300;DHT22;42209;6.376;-10.782;2023-04-15T00:43:11;22.70;49.50
56300;DHT22;42209;6.376;-10.782;2023-04-15T00:45:39;22.50;46.90
56300;DHT22;42209;6.376;-10.782;2023-04-15T00:48:09;22.40;46.40
56300;DHT22;42209;6.376;-10.782;2023-04-15T00:50:38;22.40;45.90
56300;DHT22;42209;6.376;-10.782;2023-04-15T00:53:06;22.30;45.20
56300;DHT22;42209;6.376;-10.782;2023-04-15T00:55:35;22.20;44.60
56300;DHT22;42209;6.376;-10.782;2023-04-15T00:58:04;22.20;44.20
56300;DHT22;42209;6.376;-10.782;2023-04-15T01:00:32;22.20;43.70
56300;DHT22;42209;6.376;-10.782;2023-04-15T01:03:00;22.20;43.30
56300;DHT22;42209;6.376;-10.782;2023-04-15T01:05:29;22.20;42.80
56300;DHT22;42209;6.376;-10.782;2023-04-15T01:07:57;22.20;42.70
56300;DHT22;42209;6.376;-10.782;2023-04-15T01:10:26;22.20;42.60
56300;DHT22;42209;6.376;-10.782;2023-04-15T01:12:54;22.10;42.20
56300;DHT22;42209;6.376;-10.782;2023-04-15T01:15:24;22.10;41.90
56300;DHT22;42209;6.376;-10.782;2023-04-15T01:17:52;22.10;42.10
56300;DHT22;42209;6.376;-10.782;2023-04-15T01:20:21;22.10;41.70
56300;DHT22;42209;6.376;-10.782;2023-04-15T01:22:49;22.10;41.60
56300;DHT22;42209;6.376;-10.782;2023-04-15T01:25:18;22.10;41.50
56300;DHT22;42209;6.376;-10.782;2023-04-15T01:27:47;22.00;41.40
56300;DHT22;42209;6.376;-10.782;2023-04-15T01:30:15;22.10;41.20
56300;DHT22;42209;6.376;-10.782;2023-04-15T01:32:44;22.10;41.20
56300;DHT22;42209;6.376;-10.782;2023-04-15T01:35:12;22.00;41.10
56300;DHT22;42209;6.376;-10.782;2023-04-15T01:37:40;22.10;41.00
56300;DHT22;42209;6.376;-10.782;2023-04-15T01:40:09;22.10;41.00
56300;DHT22;42209;6.376;-10.782;2023-04-15T01:42:37;22.00;41.00
56300;DHT22;42209;6.376;-10.782;2023-04-15T01:45:06;22.00;40.80
56300;DHT22;42209;6.376;-10.782;2023-04-15T01:47:37;22.00;40.80
56300;DHT22;42209;6.376;-10.782;2023-04-15T01:50:05;22.00;40.70
56300;DHT22;42209;6.376;-10.782;2023-04-15T01:52:34;21.90;40.90
56300;DHT22;42209;6.376;-10.782;2023-04-15T01:55:02;22.00;40.70
56300;DHT22;42209;6.376;-10.782;2023-04-15T01:57:30;22.00;40.80
56300;DHT22;42209;6.376;-10.782;2023-04-15T01:59:59;21.90;40.50
56300;DHT22;42209;6.376;-10.782;2023-04-15T02:02:39;22.00;43.70
56300;DHT22;42209;6.376;-10.782;2023-04-15T02:05:08;22.20;49.90
56300;DHT22;42209;6.376;-10.782;2023-04-15T02:07:36;22.40;52.50
56300;DHT22;42209;6.376;-10.782;2023-04-15T02:10:05;22.70;54.30
56300;DHT22;42209;6.376;-10.782;2023-04-15T02:12:35;22.70;50.60
56300;DHT22;42209;6.376;-10.782;2023-04-15T02:15:03;22.50;47.80
56300;DHT22;42209;6.376;-10.782;2023-04-15T02:17:35;22.40;46.70
56300;DHT22;42209;6.376;-10.782;2023-04-15T02:20:04;22.30;45.80
56300;DHT22;42209;6.376;-10.782;2023-04-15T02:22:33;22.20;45.30
56300;DHT22;42209;6.376;-10.782;2023-04-15T02:25:01;22.20;44.70
56300;DHT22;42209;6.376;-10.782;2023-04-15T02:27:31;22.10;44.20
56300;DHT22;42209;6.376;-10.782;2023-04-15T02:29:59;22.10;43.60
56300;DHT22;42209;6.376;-10.782;2023-04-15T02:32:28;22.10;43.40
56300;DHT22;42209;6.376;-10.782;2023-04-15T02:34:56;22.10;43.10
56300;DHT22;42209;6.376;-10.782;2023-04-15T02:37:29;22.10;42.80
56300;DHT22;42209;6.376;-10.782;2023-04-15T02:39:57;22.10;42.40
56300;DHT22;42209;6.376;-10.782;2023-04-15T02:42:25;22.00;42.00
56300;DHT22;42209;6.376;-10.782;2023-04-15T02:44:54;22.10;42.10
56300;DHT22;42209;6.376;-10.782;2023-04-15T02:47:28;22.00;41.60
56300;DHT22;42209;6.376;-10.782;2023-04-15T02:49:56;22.00;41.40
56300;DHT22;42209;6.376;-10.782;2023-04-15T02:52:25;22.00;41.30
56300;DHT22;42209;6.376;-10.782;2023-04-15T02:54:53;22.00;41.20
56300;DHT22;42209;6.376;-10.782;2023-04-15T02:57:21;22.00;41.10
56300;DHT22;42209;6.376;-10.782;2023-04-15T02:59:49;22.00;40.90
56300;DHT22;42209;6.376;-10.782;2023-04-15T03:02:18;22.00;41.50
56300;DHT22;42209;6.376;-10.782;2023-04-15T03:04:46;22.00;40.80
56300;DHT22;42209;6.376;-10.782;2023-04-15T03:07:16;22.00;40.70
56300;DHT22;42209;6.376;-10.782;2023-04-15T03:09:45;21.90;40.60
56300;DHT22;42209;6.376;-10.782;2023-04-15T03:12:14;21.90;40.70
56300;DHT22;42209;6.376;-10.782;2023-04-15T03:14:44;21.90;40.50
56300;DHT22;42209;6.376;-10.782;2023-04-15T03:17:16;21.90;40.50
56300;DHT22;42209;6.376;-10.782;2023-04-15T03:19:45;21.80;40.60
56300;DHT22;42209;6.376;-10.782;2023-04-15T03:22:13;22.00;47.60
56300;DHT22;42209;6.376;-10.782;2023-04-15T03:24:41;22.30;50.80
56300;DHT22;42209;6.376;-10.782;2023-04-15T03:27:10;22.50;53.00
56300;DHT22;42209;6.376;-10.782;2023-04-15T03:29:39;22.70;55.10
56300;DHT22;42209;6.376;-10.782;2023-04-15T03:32:07;22.80;52.20
56300;DHT22;42209;6.376;-10.782;2023-04-15T03:34:35;22.60;48.70
56300;DHT22;42209;6.376;-10.782;2023-04-15T03:37:04;22.40;47.10
56300;DHT22;42209;6.376;-10.782;2023-04-15T03:39:32;22.30;46.40
56300;DHT22;42209;6.376;-10.782;2023-04-15T03:42:01;22.20;45.60
56300;DHT22;42209;6.376;-10.782;2023-04-15T03:44:29;22.20;50.60
56300;DHT22;42209;6.376;-10.782;2023-04-15T03:46:57;22.40;54.50
56300;DHT22;42209;6.376;-10.782;2023-04-15T03:49:25;22.60;56.80
56300;DHT22;42209;6.376;-10.782;2023-04-15T03:51:54;22.80;58.70
56300;DHT22;42209;6.376;-10.782;2023-04-15T03:54:22;22.80;53.30
56300;DHT22;42209;6.376;-10.782;2023-04-15T03:56:50;22.60;50.30
56300;DHT22;42209;6.376;-10.782;2023-04-15T03:59:18;22.50;48.90
56300;DHT22;42209;6.376;-10.782;2023-04-15T04:01:46;22.30;47.90
56300;DHT22;42209;6.376;-10.782;2023-04-15T04:04:15;22.30;47.10
56300;DHT22;42209;6.376;-10.782;2023-04-15T04:06:43;22.20;46.50
56300;DHT22;42209;6.376;-10.782;2023-04-15T04:09:12;22.20;45.50
56300;DHT22;42209;6.376;-10.782;2023-04-15T04:11:41;22.20;45.10
56300;DHT22;42209;6.376;-10.782;2023-04-15T04:14:09;22.20;44.40
56300;DHT22;42209;6.376;-10.782;2023-04-15T04:16:37;22.10;43.90
56300;DHT22;42209;6.376;-10.782;2023-04-15T04:19:05;22.10;43.60
56300;DHT22;42209;6.376;-10.782;2023-04-15T04:21:34;22.00;43.20
56300;DHT22;42209;6.376;-10.782;2023-04-15T04:24:02;22.10;42.90
56300;DHT22;42209;6.376;-10.782;2023-04-15T04:26:30;22.10;42.50
56300;DHT22;42209;6.376;-10.782;2023-04-15T04:28:59;22.10;42.40
56300;DHT22;42209;6.376;-10.782;2023-04-15T04:31:27;22.00;42.10
56300;DHT22;42209;6.376;-10.782;2023-04-15T04:33:56;22.00;41.70
56300;DHT22;42209;6.376;-10.782;2023-04-15T04:36:24;22.00;41.70
56300;DHT22;42209;6.376;-10.782;2023-04-15T04:38:52;22.00;41.40
56300;DHT22;42209;6.376;-10.782;2023-04-15T04:41:20;21.90;41.40
56300;DHT22;42209;6.376;-10.782;2023-04-15T04:43:48;21.90;41.30
56300;DHT22;42209;6.376;-10.782;2023-04-15T04:46:17;22.10;47.80
56300;DHT22;42209;6.376;-10.782;2023-04-15T04:48:45;22.30;51.60
56300;DHT22;42209;6.376;-10.782;2023-04-15T04:51:13;22.50;53.20
56300;DHT22;42209;6.376;-10.782;2023-04-15T04:53:41;22.70;55.30
56300;DHT22;42209;6.376;-10.782;2023-04-15T04:56:10;22.80;57.20
56300;DHT22;42209;6.376;-10.782;2023-04-15T04:58:38;22.70;52.10
56300;DHT22;42209;6.376;-10.782;2023-04-15T05:01:06;22.60;50.20
56300;DHT22;42209;6.376;-10.782;2023-04-15T05:03:34;22.40;49.10
56300;DHT22;42209;6.376;-10.782;2023-04-15T05:06:03;22.30;48.30
56300;DHT22;42209;6.376;-10.782;2023-04-15T05:08:31;22.30;47.70
56300;DHT22;42209;6.376;-10.782;2023-04-15T05:11:00;22.20;46.90
56300;DHT22;42209;6.376;-10.782;2023-04-15T05:13:28;22.20;46.20
56300;DHT22;42209;6.376;-10.782;2023-04-15T05:15:56;22.20;45.50
56300;DHT22;42209;6.376;-10.782;2023-04-15T05:18:24;22.20;44.90
56300;DHT22;42209;6.376;-10.782;2023-04-15T05:20:53;22.10;44.10
56300;DHT22;42209;6.376;-10.782;2023-04-15T05:23:21;22.10;43.90
56300;DHT22;42209;6.376;-10.782;2023-04-15T05:25:49;22.00;43.30
56300;DHT22;42209;6.376;-10.782;2023-04-15T05:28:17;22.00;43.10
56300;DHT22;42209;6.376;-10.782;2023-04-15T05:30:45;21.90;42.60
56300;DHT22;42209;6.376;-10.782;2023-04-15T05:33:14;22.00;42.40
56300;DHT22;42209;6.376;-10.782;2023-04-15T05:35:42;22.10;49.30
56300;DHT22;42209;6.376;-10.782;2023-04-15T05:38:10;22.30;52.60
56300;DHT22;42209;6.376;-10.782;2023-04-15T05:40:38;22.60;54.50
56300;DHT22;42209;6.376;-10.782;2023-04-15T05:43:07;22.70;56.40
56300;DHT22;42209;6.376;-10.782;2023-04-15T05:45:35;22.80;54.10
56300;DHT22;42209;6.376;-10.782;2023-04-15T05:48:03;22.60;50.00
56300;DHT22;42209;6.376;-10.782;2023-04-15T05:50:32;22.40;48.50
56300;DHT22;42209;6.376;-10.782;2023-04-15T05:53:00;22.30;47.40
56300;DHT22;42209;6.376;-10.782;2023-04-15T05:55:28;22.20;47.60
56300;DHT22;42209;6.376;-10.782;2023-04-15T05:57:57;22.30;53.90
56300;DHT22;42209;6.376;-10.782;2023-04-15T06:00:25;22.60;57.20
56300;DHT22;42209;6.376;-10.782;2023-04-15T06:02:54;22.80;58.80
56300;DHT22;42209;6.376;-10.782;2023-04-15T06:05:23;22.90;59.30
56300;DHT22;42209;6.376;-10.782;2023-04-15T06:07:51;22.80;53.00
56300;DHT22;42209;6.376;-10.782;2023-04-15T06:10:20;22.60;51.10
56300;DHT22;42209;6.376;-10.782;2023-04-15T06:12:48;22.50;50.60
56300;DHT22;42209;6.376;-10.782;2023-04-15T06:15:16;22.40;49.40
56300;DHT22;42209;6.376;-10.782;2023-04-15T06:17:44;22.30;48.20
56300;DHT22;42209;6.376;-10.782;2023-04-15T06:20:13;22.20;47.20
56300;DHT22;42209;6.376;-10.782;2023-04-15T06:22:41;22.20;46.70
56300;DHT22;42209;6.376;-10.782;2023-04-15T06:25:09;22.10;45.60
56300;DHT22;42209;6.376;-10.782;2023-04-15T06:27:37;22.10;44.90
56300;DHT22;42209;6.376;-10.782;2023-04-15T06:30:06;22.10;44.60
56300;DHT22;42209;6.376;-10.782;2023-04-15T06:32:34;22.00;44.10
56300;DHT22;42209;6.376;-10.782;2023-04-15T06:35:03;22.00;43.60
56300;DHT22;42209;6.376;-10.782;2023-04-15T06:37:31;22.00;43.40
56300;DHT22;42209;6.376;-10.782;2023-04-15T06:39:59;22.00;43.00
56300;DHT22;42209;6.376;-10.782;2023-04-15T06:42:27;21.90;42.80
56300;DHT22;42209;6.376;-10.782;2023-04-15T06:44:56;21.90;42.20
56300;DHT22;42209;6.376;-10.782;2023-04-15T06:47:24;21.90;43.90
56300;DHT22;42209;6.376;-10.782;2023-04-15T06:49:52;22.10;50.60
56300;DHT22;42209;6.376;-10.782;2023-04-15T06:52:21;22.30;53.80
56300;DHT22;42209;6.376;-10.782;2023-04-15T06:54:49;22.50;55.60
56300;DHT22;42209;6.376;-10.782;2023-04-15T06:57:17;22.70;57.00
56300;DHT22;42209;6.376;-10.782;2023-04-15T06:59:45;22.80;56.30
56300;DHT22;42209;6.376;-10.782;2023-04-15T07:02:13;22.60;51.90
56300;DHT22;42209;6.376;-10.782;2023-04-15T07:04:42;22.30;50.00
56300;DHT22;42209;6.376;-10.782;2023-04-15T07:07:10;22.30;55.20
56300;DHT22;42209;6.376;-10.782;2023-04-15T07:09:38;22.40;57.70
56300;DHT22;42209;6.376;-10.782;2023-04-15T07:12:07;22.70;60.00
56300;DHT22;42209;6.376;-10.782;2023-04-15T07:14:35;22.80;62.50
56300;DHT22;42209;6.376;-10.782;2023-04-15T07:17:03;22.90;60.30
56300;DHT22;42209;6.376;-10.782;2023-04-15T07:19:31;22.80;55.40
56300;DHT22;42209;6.376;-10.782;2023-04-15T07:22:00;22.60;54.00
56300;DHT22;42209;6.376;-10.782;2023-04-15T07:24:28;22.40;52.60
56300;DHT22;42209;6.376;-10.782;2023-04-15T07:26:56;22.50;58.80
56300;DHT22;42209;6.376;-10.782;2023-04-15T07:29:27;22.70;61.60
56300;DHT22;42209;6.376;-10.782;2023-04-15T07:31:55;22.90;62.50
56300;DHT22;42209;6.376;-10.782;2023-04-15T07:34:24;23.10;62.70
56300;DHT22;42209;6.376;-10.782;2023-04-15T07:36:52;22.90;56.60
56300;DHT22;42209;6.376;-10.782;2023-04-15T07:39:20;22.70;54.00
56300;DHT22;42209;6.376;-10.782;2023-04-15T07:41:48;22.50;52.50
56300;DHT22;42209;6.376;-10.782;2023-04-15T07:44:17;22.50;51.60
56300;DHT22;42209;6.376;-10.782;2023-04-15T07:46:45;22.60;57.90
56300;DHT22;42209;6.376;-10.782;2023-04-15T07:49:13;22.80;60.90
56300;DHT22;42209;6.376;-10.782;2023-04-15T07:51:42;23.00;62.80
56300;DHT22;42209;6.376;-10.782;2023-04-15T07:54:10;23.00;59.80
56300;DHT22;42209;6.376;-10.782;2023-04-15T07:56:38;22.80;55.60
56300;DHT22;42209;6.376;-10.782;2023-04-15T07:59:06;22.70;53.50
56300;DHT22;42209;6.376;-10.782;2023-04-15T08:01:35;22.50;52.20
56300;DHT22;42209;6.376;-10.782;2023-04-15T08:04:04;22.40;51.00
56300;DHT22;42209;6.376;-10.782;2023-04-15T08:06:32;22.40;51.00
56300;DHT22;42209;6.376;-10.782;2023-04-15T08:09:01;22.40;49.90
56300;DHT22;42209;6.376;-10.782;2023-04-15T08:11:29;22.30;48.80
56300;DHT22;42209;6.376;-10.782;2023-04-15T08:13:57;22.30;48.20
56300;DHT22;42209;6.376;-10.782;2023-04-15T08:16:26;22.20;47.20
56300;DHT22;42209;6.376;-10.782;2023-04-15T08:18:55;22.10;48.40
56300;DHT22;42209;6.376;-10.782;2023-04-15T08:21:24;22.30;54.90
56300;DHT22;42209;6.376;-10.782;2023-04-15T08:23:52;22.50;58.20
56300;DHT22;42209;6.376;-10.782;2023-04-15T08:26:21;22.70;60.70
56300;DHT22;42209;6.376;-10.782;2023-04-15T08:28:49;22.90;63.60
56300;DHT22;42209;6.376;-10.782;2023-04-15T08:31:18;23.00;61.80
56300;DHT22;42209;6.376;-10.782;2023-04-15T08:33:46;22.80;56.60
56300;DHT22;42209;6.376;-10.782;2023-04-15T08:36:15;22.50;53.80
56300;DHT22;42209;6.376;-10.782;2023-04-15T08:38:44;22.40;57.00
56300;DHT22;42209;6.376;-10.782;2023-04-15T08:41:20;22.70;60.00
56300;DHT22;42209;6.376;-10.782;2023-04-15T08:44:01;23.00;58.40
56300;DHT22;42209;6.376;-10.782;2023-04-15T08:46:31;23.30;55.40
56300;DHT22;42209;6.376;-10.782;2023-04-15T08:49:03;23.60;53.30
56300;DHT22;42209;6.376;-10.782;2023-04-15T08:51:31;23.80;52.60
56300;DHT22;42209;6.376;-10.782;2023-04-15T08:54:00;23.90;52.60
56300;DHT22;42209;6.376;-10.782;2023-04-15T08:56:31;24.00;52.50
56300;DHT22;42209;6.376;-10.782;2023-04-15T08:59:00;24.10;51.70
56300;DHT22;42209;6.376;-10.782;2023-04-15T09:01:29;24.20;50.90
56300;DHT22;42209;6.376;-10.782;2023-04-15T09:03:59;24.30;53.10
56300;DHT22;42209;6.376;-10.782;2023-04-15T09:06:29;24.40;52.10
56300;DHT22;42209;6.376;-10.782;2023-04-15T09:08:58;24.40;52.10
56300;DHT22;42209;6.376;-10.782;2023-04-15T09:11:26;24.50;51.40
56300;DHT22;42209;6.376;-10.782;2023-04-15T09:13:55;24.50;50.40
56300;DHT22;42209;6.376;-10.782;2023-04-15T09:16:23;24.60;51.10
56300;DHT22;42209;6.376;-10.782;2023-04-15T09:18:52;24.60;50.50
56300;DHT22;42209;6.376;-10.782;2023-04-15T09:21:20;24.60;50.20
56300;DHT22;42209;6.376;-10.782;2023-04-15T09:23:57;24.70;50.40
56300;DHT22;42209;6.376;-10.782;2023-04-15T09:26:36;24.70;48.50
56300;DHT22;42209;6.376;-10.782;2023-04-15T09:29:09;24.70;46.10
56300;DHT22;42209;6.376;-10.782;2023-04-15T09:31:38;24.60;47.10
56300;DHT22;42209;6.376;-10.782;2023-04-15T09:34:07;24.50;46.90
56300;DHT22;42209;6.376;-10.782;2023-04-15T09:36:52;24.40;47.00
56300;DHT22;42209;6.376;-10.782;2023-04-15T09:39:21;24.40;46.80
56300;DHT22;42209;6.376;-10.782;2023-04-15T09:42:07;24.30;46.60
56300;DHT22;42209;6.376;-10.782;2023-04-15T09:44:36;24.40;47.20
56300;DHT22;42209;6.376;-10.782;2023-04-15T09:47:05;24.40;47.30
56300;DHT22;42209;6.376;-10.782;2023-04-15T09:49:33;24.50;47.10
56300;DHT22;42209;6.376;-10.782;2023-04-15T09:52:02;24.60;46.50
56300;DHT22;42209;6.376;-10.782;2023-04-15T09:54:34;24.60;46.30
56300;DHT22;42209;6.376;-10.782;2023-04-15T09:57:07;24.60;46.90
56300;DHT22;42209;6.376;-10.782;2023-04-15T09:59:35;24.70;47.80
56300;DHT22;42209;6.376;-10.782;2023-04-15T10:02:05;24.70;48.70
56300;DHT22;42209;6.376;-10.782;2023-04-15T10:04:39;24.80;49.10
56300;DHT22;42209;6.376;-10.782;2023-04-15T10:07:09;24.80;49.70
56300;DHT22;42209;6.376;-10.782;2023-04-15T10:09:38;24.80;50.30
56300;DHT22;42209;6.376;-10.782;2023-04-15T10:12:07;24.80;51.20
56300;DHT22;42209;6.376;-10.782;2023-04-15T10:14:37;24.80;51.60
56300;DHT22;42209;6.376;-10.782;2023-04-15T10:17:07;24.80;52.30
56300;DHT22;42209;6.376;-10.782;2023-04-15T10:19:38;24.90;52.50
56300;DHT22;42209;6.376;-10.782;2023-04-15T10:22:07;24.90;52.80
56300;DHT22;42209;6.376;-10.782;2023-04-15T10:24:35;24.90;53.10
56300;DHT22;42209;6.376;-10.782;2023-04-15T10:27:06;24.90;51.20
56300;DHT22;42209;6.376;-10.782;2023-04-15T10:29:35;24.90;52.40
56300;DHT22;42209;6.376;-10.782;2023-04-15T10:32:03;25.00;52.80
56300;DHT22;42209;6.376;-10.782;2023-04-15T10:34:31;25.00;53.20
56300;DHT22;42209;6.376;-10.782;2023-04-15T10:37:01;25.00;53.60
56300;DHT22;42209;6.376;-10.782;2023-04-15T10:42:18;25.00;54.80
56300;DHT22;42209;6.376;-10.782;2023-04-15T10:44:51;25.10;54.70
56300;DHT22;42209;6.376;-10.782;2023-04-15T10:47:23;25.00;54.90
56300;DHT22;42209;6.376;-10.782;2023-04-15T10:49:57;25.10;55.60
56300;DHT22;42209;6.376;-10.782;2023-04-15T10:52:27;25.10;55.40
56300;DHT22;42209;6.376;-10.782;2023-04-15T10:55:23;25.20;55.30
56300;DHT22;42209;6.376;-10.782;2023-04-15T10:57:53;25.20;55.20
56300;DHT22;42209;6.376;-10.782;2023-04-15T11:00:25;25.20;55.10
56300;DHT22;42209;6.376;-10.782;2023-04-15T11:02:59;25.20;54.80
56300;DHT22;42209;6.376;-10.782;2023-04-15T11:08:10;25.20;54.60
56300;DHT22;42209;6.376;-10.782;2023-04-15T11:15:46;25.20;55.00
56300;DHT22;42209;6.376;-10.782;2023-04-15T11:18:22;25.20;54.70
56300;DHT22;42209;6.376;-10.782;2023-04-15T11:20:55;25.20;54.20
56300;DHT22;42209;6.376;-10.782;2023-04-15T11:26:02;25.30;52.60
56300;DHT22;42209;6.376;-10.782;2023-04-15T11:28:31;25.20;52.30
56300;DHT22;42209;6.376;-10.782;2023-04-15T11:31:07;25.30;52.00
56300;DHT22;42209;6.376;-10.782;2023-04-15T11:33:36;25.30;52.20
56300;DHT22;42209;6.376;-10.782;2023-04-15T11:36:05;25.30;52.70
56300;DHT22;42209;6.376;-10.782;2023-04-15T11:38:33;25.30;52.80
56300;DHT22;42209;6.376;-10.782;2023-04-15T11:41:01;25.30;53.20
56300;DHT22;42209;6.376;-10.782;2023-04-15T11:43:31;25.30;53.40
56300;DHT22;42209;6.376;-10.782;2023-04-15T11:46:01;25.30;53.40
56300;DHT22;42209;6.376;-10.782;2023-04-15T11:48:34;25.30;53.60
56300;DHT22;42209;6.376;-10.782;2023-04-15T11:51:05;25.30;53.60
56300;DHT22;42209;6.376;-10.782;2023-04-15T11:53:47;25.40;53.70
56300;DHT22;42209;6.376;-10.782;2023-04-15T11:58:46;25.30;53.60
56300;DHT22;42209;6.376;-10.782;2023-04-15T12:01:14;25.40;48.60
56300;DHT22;42209;6.376;-10.782;2023-04-15T12:03:45;25.60;48.20
56300;DHT22;42209;6.376;-10.782;2023-04-15T12:06:24;25.60;47.60
56300;DHT22;42209;6.376;-10.782;2023-04-15T12:09:11;25.60;47.60
56300;DHT22;42209;6.376;-10.782;2023-04-15T12:11:46;25.60;46.30
56300;DHT22;42209;6.376;-10.782;2023-04-15T12:16:54;25.70;45.70
56300;DHT22;42209;6.376;-10.782;2023-04-15T12:22:05;25.70;46.90
56300;DHT22;42209;6.376;-10.782;2023-04-15T12:24:36;25.80;45.50
56300;DHT22;42209;6.376;-10.782;2023-04-15T12:27:06;25.80;44.60
56300;DHT22;42209;6.376;-10.782;2023-04-15T12:29:36;25.80;48.40
56300;DHT22;42209;6.376;-10.782;2023-04-15T12:32:08;25.90;45.90
56300;DHT22;42209;6.376;-10.782;2023-04-15T12:34:48;25.80;44.20
56300;DHT22;42209;6.376;-10.782;2023-04-15T12:37:17;25.90;45.80
56300;DHT22;42209;6.376;-10.782;2023-04-15T12:39:48;25.90;45.60
56300;DHT22;42209;6.376;-10.782;2023-04-15T12:42:17;26.00;47.00
56300;DHT22;42209;6.376;-10.782;2023-04-15T12:44:45;25.90;49.30
56300;DHT22;42209;6.376;-10.782;2023-04-15T12:47:14;26.00;45.90
56300;DHT22;42209;6.376;-10.782;2023-04-15T12:49:42;26.00;50.30
56300;DHT22;42209;6.376;-10.782;2023-04-15T12:52:10;26.10;48.60
56300;DHT22;42209;6.376;-10.782;2023-04-15T12:54:38;26.10;45.20
56300;DHT22;42209;6.376;-10.782;2023-04-15T12:57:06;26.10;45.50
56300;DHT22;42209;6.376;-10.782;2023-04-15T12:59:35;26.10;45.80
56300;DHT22;42209;6.376;-10.782;2023-04-15T13:02:03;26.20;50.70
56300;DHT22;42209;6.376;-10.782;2023-04-15T13:04:31;26.20;46.00
56300;DHT22;42209;6.376;-10.782;2023-04-15T13:07:01;26.20;48.20
56300;DHT22;42209;6.376;-10.782;2023-04-15T13:09:29;26.30;47.50
56300;DHT22;42209;6.376;-10.782;2023-04-15T13:11:57;26.30;50.70
56300;DHT22;42209;6.376;-10.782;2023-04-15T13:14:25;26.40;50.90
56300;DHT22;42209;6.376;-10.782;2023-04-15T13:16:54;26.40;49.30
56300;DHT22;42209;6.376;-10.782;2023-04-15T13:19:22;26.40;50.20
56300;DHT22;42209;6.376;-10.782;2023-04-15T13:21:50;26.50;50.40
56300;DHT22;42209;6.376;-10.782;2023-04-15T13:24:19;26.50;50.80
56300;DHT22;42209;6.376;-10.782;2023-04-15T13:26:47;26.50;51.40
56300;DHT22;42209;6.376;-10.782;2023-04-15T13:29:16;26.60;53.20
56300;DHT22;42209;6.376;-10.782;2023-04-15T13:31:45;26.60;53.10
56300;DHT22;42209;6.376;-10.782;2023-04-15T13:34:13;26.60;53.70
56300;DHT22;42209;6.376;-10.782;2023-04-15T13:36:42;26.60;53.20
56300;DHT22;42209;6.376;-10.782;2023-04-15T13:39:10;26.60;53.60
56300;DHT22;42209;6.376;-10.782;2023-04-15T13:41:39;26.60;54.00
56300;DHT22;42209;6.376;-10.782;2023-04-15T13:44:07;26.70;54.30
56300;DHT22;42209;6.376;-10.782;2023-04-15T13:46:39;26.70;54.50
56300;DHT22;42209;6.376;-10.782;2023-04-15T13:49:07;26.70;55.80
56300;DHT22;42209;6.376;-10.782;2023-04-15T13:51:35;26.70;57.00
56300;DHT22;42209;6.376;-10.782;2023-04-15T13:54:04;26.70;56.20
56300;DHT22;42209;6.376;-10.782;2023-04-15T13:56:33;26.80;55.40
56300;DHT22;42209;6.376;-10.782;2023-04-15T13:59:01;26.80;55.80
56300;DHT22;42209;6.376;-10.782;2023-04-15T14:01:29;26.80;56.00
56300;DHT22;42209;6.376;-10.782;2023-04-15T14:03:58;26.90;57.30
56300;DHT22;42209;6.376;-10.782;2023-04-15T14:06:27;26.90;55.90
56300;DHT22;42209;6.376;-10.782;2023-04-15T14:08:55;26.90;56.50
56300;DHT22;42209;6.376;-10.782;2023-04-15T14:11:23;26.90;56.90
56300;DHT22;42209;6.376;-10.782;2023-04-15T14:13:51;26.90;56.30
56300;DHT22;42209;6.376;-10.782;2023-04-15T14:16:20;26.90;56.70
56300;DHT22;42209;6.376;-10.782;2023-04-15T14:18:48;26.90;57.60
56300;DHT22;42209;6.376;-10.782;2023-04-15T14:21:16;27.00;57.70
56300;DHT22;42209;6.376;-10.782;2023-04-15T14:23:44;27.00;57.10
56300;DHT22;42209;6.376;-10.782;2023-04-15T14:26:12;27.00;57.30
56300;DHT22;42209;6.376;-10.782;2023-04-15T14:28:41;27.10;58.30
56300;DHT22;42209;6.376;-10.782;2023-04-15T14:31:09;27.10;58.00
56300;DHT22;42209;6.376;-10.782;2023-04-15T14:33:37;27.10;58.60
56300;DHT22;42209;6.376;-10.782;2023-04-15T14:36:06;27.10;59.10
56300;DHT22;42209;6.376;-10.782;2023-04-15T14:38:35;27.10;58.40
56300;DHT22;42209;6.376;-10.782;2023-04-15T14:41:04;27.10;57.90
56300;DHT22;42209;6.376;-10.782;2023-04-15T14:43:33;27.10;58.50
56300;DHT22;42209;6.376;-10.782;2023-04-15T14:46:01;27.20;59.50
56300;DHT22;42209;6.376;-10.782;2023-04-15T14:48:30;27.20;58.30
56300;DHT22;42209;6.376;-10.782;2023-04-15T14:50:59;27.20;58.60
56300;DHT22;42209;6.376;-10.782;2023-04-15T14:53:27;27.20;58.90
56300;DHT22;42209;6.376;-10.782;2023-04-15T14:55:55;27.20;59.70
56300;DHT22;42209;6.376;-10.782;2023-04-15T14:58:23;27.30;59.50
56300;DHT22;42209;6.376;-10.782;2023-04-15T15:00:51;27.30;58.60
56300;DHT22;42209;6.376;-10.782;2023-04-15T15:03:20;27.30;62.50
56300;DHT22;42209;6.376;-10.782;2023-04-15T15:05:48;27.30;58.80
56300;DHT22;42209;6.376;-10.782;2023-04-15T15:08:17;27.30;61.20
56300;DHT22;42209;6.376;-10.782;2023-04-15T15:10:45;27.30;60.00
56300;DHT22;42209;6.376;-10.782;2023-04-15T15:13:17;27.20;57.60
56300;DHT22;42209;6.376;-10.782;2023-04-15T15:15:45;27.20;55.90
56300;DHT22;42209;6.376;-10.782;2023-04-15T15:18:15;27.20;51.90
56300;DHT22;42209;6.376;-10.782;2023-04-15T15:20:43;27.20;51.80
56300;DHT22;42209;6.376;-10.782;2023-04-15T15:23:13;27.20;49.50
56300;DHT22;42209;6.376;-10.782;2023-04-15T15:25:42;27.20;47.90
56300;DHT22;42209;6.376;-10.782;2023-04-15T15:28:10;27.10;52.40
56300;DHT22;42209;6.376;-10.782;2023-04-15T15:30:38;27.10;51.80
56300;DHT22;42209;6.376;-10.782;2023-04-15T15:33:07;27.10;49.40
56300;DHT22;42209;6.376;-10.782;2023-04-15T15:35:35;27.10;46.40
56300;DHT22;42209;6.376;-10.782;2023-04-15T15:38:03;27.10;46.00
56300;DHT22;42209;6.376;-10.782;2023-04-15T15:40:31;27.10;50.80
56300;DHT22;42209;6.376;-10.782;2023-04-15T15:43:00;27.10;45.30
56300;DHT22;42209;6.376;-10.782;2023-04-15T15:45:28;27.10;44.70
56300;DHT22;42209;6.376;-10.782;2023-04-15T15:47:57;27.20;51.30